createdAt,value
2016-08-09T00:00:43.947Z,0
2016-08-09T00:01:43.956Z,0
2016-08-09T00:02:43.952Z,0
2016-08-09T00:03:44.671Z,0
2016-08-09T00:04:43.957Z,0
2016-08-09T00:05:43.954Z,0
2016-08-09T00:06:43.943Z,0
2016-08-09T00:07:46.202Z,0
2016-08-09T00:08:59.267Z,0
2016-08-09T00:09:44.343Z,0
2016-08-09T00:11:44.442Z,0
2016-08-09T00:12:45.599Z,0
2016-08-09T00:13:43.928Z,0
2016-08-09T00:14:43.938Z,0
2016-08-09T00:15:43.938Z,0
2016-08-09T00:16:45.898Z,0
2016-08-09T00:17:44.736Z,0
2016-08-09T00:19:29.084Z,0
2016-08-09T00:20:44.324Z,0
2016-08-09T00:21:43.923Z,0
2016-08-09T00:22:44.131Z,0
2016-08-09T00:23:44.325Z,0
2016-08-09T00:24:43.925Z,0
2016-08-09T00:25:43.922Z,0
2016-08-09T00:26:43.932Z,0
2016-08-09T00:27:43.916Z,0
2016-08-09T00:28:46.349Z,0
2016-08-09T00:29:46.912Z,0
2016-08-09T00:30:45.005Z,0
2016-08-09T00:31:45.114Z,0
2016-08-09T00:32:44.808Z,0
2016-08-09T00:33:43.923Z,0
2016-08-09T00:34:43.912Z,0
2016-08-09T00:35:43.900Z,0
2016-08-09T00:36:44.023Z,0
2016-08-09T00:38:46.739Z,0
2016-08-09T00:39:47.183Z,0
2016-08-09T00:40:47.443Z,0
2016-08-09T00:41:44.419Z,0
2016-08-09T00:42:43.890Z,0
2016-08-09T00:43:43.887Z,0
2016-08-09T00:44:43.888Z,0
2016-08-09T00:45:43.891Z,0
2016-08-09T00:46:43.882Z,0
2016-08-09T00:47:43.882Z,0
2016-08-09T00:48:43.893Z,0
2016-08-09T00:49:43.892Z,0
2016-08-09T00:50:43.887Z,0
2016-08-09T00:51:43.884Z,0
2016-08-09T00:52:43.872Z,0
2016-08-09T00:53:43.870Z,0
2016-08-09T00:54:43.884Z,0
2016-08-09T00:55:43.886Z,0
2016-08-09T00:56:43.874Z,0
2016-08-09T00:57:43.869Z,0
2016-08-09T00:58:43.895Z,0
2016-08-09T00:59:43.867Z,0
2016-08-09T01:00:43.867Z,0
2016-08-09T01:01:44.570Z,0
2016-08-09T01:02:43.872Z,0
2016-08-09T01:03:43.858Z,0
2016-08-09T01:04:43.870Z,0
2016-08-09T01:05:43.859Z,0
2016-08-09T01:06:43.959Z,0
2016-08-09T01:07:43.859Z,0
2016-08-09T01:08:43.857Z,0
2016-08-09T01:09:43.847Z,0
2016-08-09T01:10:43.857Z,0
2016-08-09T01:11:43.862Z,0
2016-08-09T01:12:43.851Z,0
2016-08-09T01:13:43.839Z,0
2016-08-09T01:14:43.833Z,0
2016-08-09T01:15:43.844Z,0
2016-08-09T01:16:43.847Z,0
2016-08-09T01:17:43.834Z,0
2016-08-09T01:18:43.844Z,0
2016-08-09T01:19:43.835Z,0
2016-08-09T01:20:43.830Z,0
2016-08-09T01:21:43.830Z,0
2016-08-09T01:22:43.829Z,0
2016-08-09T01:23:43.829Z,0
2016-08-09T01:24:43.832Z,0
2016-08-09T01:26:44.273Z,0
2016-08-09T01:27:59.540Z,0
2016-08-09T01:28:44.178Z,0
2016-08-09T01:29:45.010Z,0
2016-08-09T01:30:44.599Z,0
2016-08-09T01:31:43.819Z,0
2016-08-09T01:32:43.825Z,0
2016-08-09T01:33:44.503Z,0
2016-08-09T01:34:43.806Z,0
2016-08-09T01:35:58.919Z,0
2016-08-09T01:36:44.608Z,0
2016-08-09T01:38:14.042Z,0
2016-08-09T01:38:44.907Z,0
2016-08-09T01:39:44.705Z,0
2016-08-09T01:40:43.799Z,0
2016-08-09T01:41:44.193Z,0
2016-08-09T01:42:43.794Z,0
2016-08-09T01:43:43.795Z,0
2016-08-09T01:44:43.798Z,0
2016-08-09T01:45:43.791Z,0
2016-08-09T01:47:46.107Z,0
2016-08-09T01:48:47.194Z,0
2016-08-09T01:49:44.667Z,0
2016-08-09T01:50:45.257Z,0
2016-08-09T01:51:44.504Z,0
2016-08-09T01:52:43.775Z,0
2016-08-09T01:53:43.795Z,0
2016-08-09T01:54:43.779Z,0
2016-08-09T01:55:43.785Z,0
2016-08-09T01:57:45.714Z,0
2016-08-09T01:58:46.879Z,0
2016-08-09T01:59:44.663Z,0
2016-08-09T02:00:44.399Z,0
2016-08-09T02:01:43.767Z,0
2016-08-09T02:02:43.807Z,0
2016-08-09T02:03:43.769Z,0
2016-08-09T02:04:43.770Z,0
2016-08-09T02:05:43.768Z,0
2016-08-09T02:06:43.751Z,0
2016-08-09T02:07:43.747Z,0
2016-08-09T02:08:43.748Z,0
2016-08-09T02:09:43.750Z,0
2016-08-09T02:10:43.761Z,0
2016-08-09T02:11:43.745Z,0
2016-08-09T02:12:43.745Z,0
2016-08-09T02:13:43.739Z,0
2016-08-09T02:14:43.731Z,0
2016-08-09T02:15:43.738Z,0
2016-08-09T02:16:43.731Z,0
2016-08-09T02:17:43.723Z,0
2016-08-09T02:18:43.726Z,0
2016-08-09T02:19:43.717Z,0
2016-08-09T02:20:43.722Z,0
2016-08-09T02:21:43.735Z,0
2016-08-09T02:22:43.709Z,0
2016-08-09T02:23:43.731Z,0
2016-08-09T02:24:44.429Z,0
2016-08-09T02:25:43.708Z,0
2016-08-09T02:26:43.718Z,0
2016-08-09T02:27:43.707Z,0
2016-08-09T02:28:43.707Z,0
2016-08-09T02:29:43.704Z,0
2016-08-09T02:30:43.701Z,0
2016-08-09T02:31:43.698Z,0
2016-08-09T02:32:43.699Z,0
2016-08-09T02:33:43.684Z,0
2016-08-09T02:34:43.689Z,0
2016-08-09T02:35:43.697Z,0
2016-08-09T02:36:43.680Z,0
2016-08-09T02:37:43.693Z,0
2016-08-09T02:38:43.693Z,0
2016-08-09T02:39:43.695Z,0
2016-08-09T02:40:43.676Z,0
2016-08-09T02:41:43.677Z,0
2016-08-09T02:42:43.676Z,0
2016-08-09T02:43:43.669Z,0
2016-08-09T02:45:44.822Z,0
2016-08-09T02:46:45.113Z,0
2016-08-09T02:47:43.713Z,0
2016-08-09T02:48:43.756Z,0
2016-08-09T02:49:43.654Z,0
2016-08-09T02:50:44.006Z,0
2016-08-09T02:51:43.656Z,0
2016-08-09T02:52:43.642Z,0
2016-08-09T02:53:44.767Z,0
2016-08-09T02:55:44.557Z,0
2016-08-09T02:56:59.202Z,0
2016-08-09T02:57:43.638Z,0
2016-08-09T02:58:43.634Z,0
2016-08-09T02:59:43.635Z,0
2016-08-09T03:00:43.635Z,0
2016-08-09T03:01:43.647Z,0
2016-08-09T03:02:43.634Z,0
2016-08-09T03:03:43.623Z,0
2016-08-09T03:04:43.619Z,0
2016-08-09T03:05:45.726Z,0
2016-08-09T03:07:47.328Z,0
2016-08-09T03:08:45.465Z,0
2016-08-09T03:09:45.410Z,0
2016-08-09T03:10:44.529Z,0
2016-08-09T03:11:43.605Z,0
2016-08-09T03:12:43.671Z,0
2016-08-09T03:13:43.637Z,0
2016-08-09T03:14:46.646Z,0
2016-08-09T03:15:45.690Z,0
2016-08-09T03:16:45.889Z,0
2016-08-09T03:17:44.556Z,0
2016-08-09T03:18:45.061Z,0
2016-08-09T03:19:44.480Z,0
2016-08-09T03:20:43.606Z,0
2016-08-09T03:21:44.271Z,0
2016-08-09T03:22:43.563Z,0
2016-08-09T03:23:43.559Z,0
2016-08-09T03:24:43.576Z,0
2016-08-09T03:25:43.561Z,0
2016-08-09T03:26:43.561Z,0
2016-08-09T03:27:43.554Z,0
2016-08-09T03:28:43.560Z,0
2016-08-09T03:29:43.548Z,5
2016-08-09T03:30:43.536Z,5
2016-08-09T03:31:44.258Z,5
2016-08-09T03:32:43.546Z,5
2016-08-09T03:33:43.548Z,5
2016-08-09T03:34:43.546Z,5
2016-08-09T03:35:43.530Z,5
2016-08-09T03:36:43.529Z,10
2016-08-09T03:37:43.530Z,10
2016-08-09T03:38:43.515Z,10
2016-08-09T03:39:43.512Z,10
2016-08-09T03:40:44.217Z,10
2016-08-09T03:41:43.514Z,10
2016-08-09T03:42:43.500Z,15
2016-08-09T03:43:43.510Z,15
2016-08-09T03:44:43.504Z,15
2016-08-09T03:45:43.508Z,15
2016-08-09T03:46:43.499Z,15
2016-08-09T03:48:43.488Z,15
2016-08-09T03:49:43.493Z,15
2016-08-09T03:50:43.474Z,15
2016-08-09T03:51:43.489Z,20
2016-08-09T03:52:43.478Z,20
2016-08-09T03:53:46.511Z,20
2016-08-09T03:54:43.477Z,20
2016-08-09T03:55:43.475Z,20
2016-08-09T03:56:43.467Z,25
2016-08-09T03:57:43.467Z,25
2016-08-09T03:58:43.452Z,25
2016-08-09T03:59:43.453Z,30
2016-08-09T04:00:43.468Z,30
2016-08-09T04:01:43.448Z,30
2016-08-09T04:02:44.203Z,35
2016-08-09T04:03:44.894Z,35
2016-08-09T04:05:44.889Z,40
2016-08-09T04:06:58.395Z,40
2016-08-09T04:07:44.348Z,40
2016-08-09T04:08:43.637Z,40
2016-08-09T04:09:43.415Z,45
2016-08-09T04:10:43.417Z,45
2016-08-09T04:12:45.270Z,50
2016-08-09T04:13:43.721Z,55
2016-08-09T04:14:45.006Z,55
2016-08-09T04:15:43.819Z,60
2016-08-09T04:16:44.509Z,60
2016-08-09T04:17:44.054Z,65
2016-08-09T04:18:44.092Z,65
2016-08-09T04:19:43.387Z,70
2016-08-09T04:20:43.382Z,70
2016-08-09T04:21:43.385Z,75
2016-08-09T04:22:43.379Z,75
2016-08-09T04:25:45.947Z,75
2016-08-09T04:27:45.860Z,85
2016-08-09T04:28:43.578Z,85
2016-08-09T04:29:43.369Z,90
2016-08-09T04:30:43.354Z,95
2016-08-09T04:31:43.350Z,100
2016-08-09T04:33:00.232Z,110
2016-08-09T04:34:44.439Z,120
2016-08-09T04:35:44.084Z,135
2016-08-09T04:36:45.417Z,150
2016-08-09T04:37:43.507Z,155
2016-08-09T04:38:43.338Z,175
2016-08-09T04:39:43.323Z,205
2016-08-09T04:40:43.425Z,195
2016-08-09T04:41:43.329Z,165
2016-08-09T04:42:43.334Z,155
2016-08-09T04:43:43.319Z,155
2016-08-09T04:44:43.313Z,165
2016-08-09T04:45:43.302Z,170
2016-08-09T04:46:43.304Z,185
2016-08-09T04:48:43.320Z,210
2016-08-09T04:49:43.301Z,240
2016-08-09T04:50:43.310Z,285
2016-08-09T04:51:43.295Z,295
2016-08-09T04:52:43.292Z,275
2016-08-09T04:53:43.303Z,275
2016-08-09T04:54:43.300Z,235
2016-08-09T04:55:43.299Z,315
2016-08-09T04:56:43.292Z,345
2016-08-09T04:57:43.988Z,275
2016-08-09T04:58:43.978Z,255
2016-08-09T04:59:43.282Z,250
2016-08-09T05:00:43.286Z,285
2016-08-09T05:01:43.289Z,285
2016-08-09T05:02:43.975Z,380
2016-08-09T05:03:43.270Z,355
2016-08-09T05:04:43.967Z,320
2016-08-09T05:05:43.283Z,300
2016-08-09T05:06:43.374Z,380
2016-08-09T05:07:43.298Z,350
2016-08-09T05:08:43.271Z,410
2016-08-09T05:09:43.273Z,415
2016-08-09T05:10:43.278Z,545
2016-08-09T05:11:43.269Z,535
2016-08-09T05:12:43.280Z,440
2016-08-09T05:13:43.279Z,445
2016-08-09T05:14:43.287Z,345
2016-08-09T05:15:43.281Z,350
2016-08-09T05:16:43.273Z,435
2016-08-09T05:17:43.273Z,390
2016-08-09T05:18:43.269Z,390
2016-08-09T05:19:43.288Z,390
2016-08-09T05:20:59.250Z,455
2016-08-09T05:21:44.582Z,380
2016-08-09T05:22:43.765Z,335
2016-08-09T05:23:58.704Z,310
2016-08-09T05:24:43.792Z,285
2016-08-09T05:25:43.293Z,255
2016-08-09T05:26:43.404Z,230
2016-08-09T05:27:43.300Z,275
2016-08-09T05:28:43.302Z,310
2016-08-09T05:29:45.755Z,225
2016-08-09T05:30:59.265Z,215
2016-08-09T05:31:59.028Z,205
2016-08-09T05:33:58.222Z,210
2016-08-09T05:34:43.667Z,215
2016-08-09T05:35:43.314Z,225
2016-08-09T05:36:43.318Z,235
2016-08-09T05:37:43.334Z,245
2016-08-09T05:38:43.328Z,255
2016-08-09T05:39:43.336Z,265
2016-08-09T05:40:43.327Z,280
2016-08-09T05:41:46.098Z,280
2016-08-09T05:42:46.787Z,270
2016-08-09T05:43:44.954Z,270
2016-08-09T05:44:45.036Z,295
2016-08-09T05:45:44.039Z,325
2016-08-09T05:46:43.334Z,350
2016-08-09T05:48:09.004Z,380
2016-08-09T05:48:43.335Z,405
2016-08-09T05:49:43.344Z,430
2016-08-09T05:50:46.148Z,470
2016-08-09T05:52:46.199Z,540
2016-08-09T05:53:44.634Z,585
2016-08-09T05:54:43.875Z,675
2016-08-09T05:55:43.347Z,955
2016-08-09T05:56:43.600Z,735
2016-08-09T05:57:43.644Z,665
2016-08-09T05:58:43.347Z,700
2016-08-09T05:59:43.347Z,655
2016-08-09T06:00:43.351Z,575
2016-08-09T06:01:43.358Z,630
2016-08-09T06:02:43.361Z,625
2016-08-09T06:03:43.353Z,855
2016-08-09T06:04:44.051Z,1005
2016-08-09T06:05:44.055Z,680
2016-08-09T06:06:43.374Z,580
2016-08-09T06:07:43.361Z,440
2016-08-09T06:08:43.374Z,425
2016-08-09T06:09:43.378Z,435
2016-08-09T06:10:43.381Z,450
2016-08-09T06:11:43.381Z,470
2016-08-09T06:12:43.399Z,495
2016-08-09T06:13:43.390Z,535
2016-08-09T06:14:43.396Z,580
2016-08-09T06:15:43.412Z,615
2016-08-09T06:16:43.398Z,615
2016-08-09T06:17:43.408Z,630
2016-08-09T06:18:43.412Z,660
2016-08-09T06:19:43.420Z,705
2016-08-09T06:20:43.422Z,715
2016-08-09T06:21:43.423Z,730
2016-08-09T06:22:43.429Z,765
2016-08-09T06:23:43.444Z,765
2016-08-09T06:24:43.435Z,815
2016-08-09T06:25:43.446Z,840
2016-08-09T06:26:43.442Z,835
2016-08-09T06:27:43.450Z,865
2016-08-09T06:28:43.447Z,955
2016-08-09T06:29:43.470Z,940
2016-08-09T06:30:43.465Z,890
2016-08-09T06:31:43.465Z,855
2016-08-09T06:32:43.471Z,890
2016-08-09T06:33:43.479Z,865
2016-08-09T06:34:43.495Z,1050
2016-08-09T06:35:43.488Z,1785
2016-08-09T06:36:43.504Z,1160
2016-08-09T06:37:43.502Z,790
2016-08-09T06:39:58.538Z,585
2016-08-09T06:40:45.112Z,585
2016-08-09T06:41:58.541Z,605
2016-08-09T06:43:44.045Z,760
2016-08-09T06:44:44.704Z,945
2016-08-09T06:45:43.551Z,865
2016-08-09T06:46:43.559Z,1145
2016-08-09T06:47:44.562Z,1410
2016-08-09T06:48:45.115Z,1180
2016-08-09T06:53:43.602Z,675
2016-08-09T06:54:43.827Z,680
2016-08-09T06:55:43.622Z,710
2016-08-09T06:56:43.626Z,735
2016-08-09T06:57:43.635Z,725
2016-08-09T06:58:43.658Z,740
2016-08-09T06:59:45.167Z,760
2016-08-09T07:01:45.892Z,800
2016-08-09T07:02:46.704Z,790
2016-08-09T07:03:46.296Z,755
2016-08-09T07:04:43.680Z,695
2016-08-09T07:05:44.292Z,650
2016-08-09T07:06:43.744Z,640
2016-08-09T07:07:43.915Z,675
2016-08-09T07:08:43.722Z,715
2016-08-09T07:09:45.774Z,760
2016-08-09T07:10:45.135Z,795
2016-08-09T07:11:46.452Z,1240
2016-08-09T07:13:43.882Z,800
2016-08-09T07:14:45.123Z,770
2016-08-09T07:15:43.756Z,735
2016-08-09T07:16:44.467Z,675
2016-08-09T07:17:44.482Z,690
2016-08-09T07:18:43.767Z,770
2016-08-09T07:19:43.781Z,735
2016-08-09T07:20:43.791Z,860
2016-08-09T07:21:43.797Z,915
2016-08-09T07:22:43.798Z,850
2016-08-09T07:23:43.812Z,980
2016-08-09T07:24:43.805Z,835
2016-08-09T07:25:43.818Z,805
2016-08-09T07:26:43.822Z,745
2016-08-09T07:27:43.837Z,700
2016-08-09T07:28:43.873Z,680
2016-08-09T07:29:43.844Z,665
2016-08-09T07:30:43.846Z,625
2016-08-09T07:31:43.861Z,605
2016-08-09T07:32:43.865Z,610
2016-08-09T07:33:43.874Z,625
2016-08-09T07:34:43.881Z,615
2016-08-09T07:35:44.597Z,615
2016-08-09T07:36:43.884Z,625
2016-08-09T07:37:43.889Z,655
2016-08-09T07:38:44.585Z,665
2016-08-09T07:39:43.915Z,655
2016-08-09T07:40:43.915Z,645
2016-08-09T07:41:43.930Z,615
2016-08-09T07:42:43.922Z,590
2016-08-09T07:43:43.931Z,565
2016-08-09T07:44:43.930Z,550
2016-08-09T07:45:43.944Z,540
2016-08-09T07:46:43.950Z,550
2016-08-09T07:47:43.957Z,560
2016-08-09T07:48:43.954Z,565
2016-08-09T07:49:43.971Z,560
2016-08-09T07:50:44.672Z,555
2016-08-09T07:51:43.974Z,555
2016-08-09T07:52:43.988Z,555
2016-08-09T07:53:43.988Z,565
2016-08-09T07:54:43.994Z,570
2016-08-09T07:55:44.016Z,560
2016-08-09T07:56:44.004Z,550
2016-08-09T07:58:00.522Z,555
2016-08-09T07:58:44.913Z,550
2016-08-09T08:00:00.582Z,570
2016-08-09T08:00:44.576Z,605
2016-08-09T08:01:44.477Z,630
2016-08-09T08:02:44.027Z,650
2016-08-09T08:03:44.389Z,1015
2016-08-09T08:04:44.039Z,1150
2016-08-09T08:05:44.047Z,1640
2016-08-09T08:06:45.057Z,1805
2016-08-09T08:07:59.981Z,1655
2016-08-09T08:08:44.610Z,1340
2016-08-09T08:09:44.615Z,1055
2016-08-09T08:10:59.640Z,930
2016-08-09T08:11:45.225Z,915
2016-08-09T08:12:44.090Z,820
2016-08-09T08:13:44.089Z,855
2016-08-09T08:14:44.282Z,975
2016-08-09T08:15:44.813Z,980
2016-08-09T08:16:44.107Z,1005
2016-08-09T08:17:44.131Z,1075
2016-08-09T08:18:47.317Z,1060
2016-08-09T08:19:47.018Z,1045
2016-08-09T08:20:45.228Z,990
2016-08-09T08:21:46.540Z,850
2016-08-09T08:22:46.394Z,920
2016-08-09T08:23:44.156Z,980
2016-08-09T08:24:44.182Z,995
2016-08-09T08:25:44.168Z,930
2016-08-09T08:26:44.181Z,885
2016-08-09T08:27:47.724Z,850
2016-08-09T08:28:46.311Z,835
2016-08-09T08:29:45.049Z,880
2016-08-09T08:30:46.830Z,950
2016-08-09T08:31:44.318Z,1010
2016-08-09T08:32:44.303Z,980
2016-08-09T08:33:44.237Z,985
2016-08-09T08:34:44.244Z,1015
2016-08-09T08:35:44.241Z,1005
2016-08-09T08:36:44.251Z,1085
2016-08-09T08:37:44.427Z,930
2016-08-09T08:38:45.019Z,910
2016-08-09T08:39:44.276Z,835
2016-08-09T08:40:44.274Z,760
2016-08-09T08:41:44.275Z,685
2016-08-09T08:42:44.292Z,665
2016-08-09T08:43:44.291Z,665
2016-08-09T08:44:44.306Z,675
2016-08-09T08:45:44.310Z,665
2016-08-09T08:46:44.322Z,660
2016-08-09T08:47:44.332Z,670
2016-08-09T08:48:44.311Z,695
2016-08-09T08:49:44.351Z,705
2016-08-09T08:50:44.345Z,710
2016-08-09T08:51:44.350Z,700
2016-08-09T08:52:44.358Z,695
2016-08-09T08:53:44.387Z,690
2016-08-09T08:54:44.385Z,695
2016-08-09T08:55:44.379Z,705
2016-08-09T08:56:44.392Z,715
2016-08-09T08:57:44.402Z,725
2016-08-09T08:58:45.090Z,720
2016-08-09T08:59:44.401Z,710
2016-08-09T09:00:44.405Z,700
2016-08-09T09:01:44.430Z,700
2016-08-09T09:02:44.517Z,695
2016-08-09T09:03:44.430Z,685
2016-08-09T09:04:44.434Z,655
2016-08-09T09:05:44.445Z,625
2016-08-09T09:06:44.447Z,610
2016-08-09T09:07:44.444Z,595
2016-08-09T09:08:44.449Z,570
2016-08-09T09:09:44.465Z,550
2016-08-09T09:10:44.467Z,525
2016-08-09T09:11:44.480Z,505
2016-08-09T09:12:44.475Z,485
2016-08-09T09:13:44.478Z,475
2016-08-09T09:14:44.492Z,460
2016-08-09T09:15:46.703Z,475
2016-08-09T09:16:44.953Z,505
2016-08-09T09:20:45.076Z,535
2016-08-09T09:21:44.539Z,550
2016-08-09T09:22:45.243Z,575
2016-08-09T09:23:44.590Z,595
2016-08-09T09:25:44.844Z,620
2016-08-09T09:26:45.105Z,635
2016-08-09T09:29:00.185Z,640
2016-08-09T09:29:44.577Z,645
2016-08-09T09:30:44.573Z,655
2016-08-09T09:31:44.579Z,675
2016-08-09T09:32:44.611Z,685
2016-08-09T09:33:44.607Z,705
2016-08-09T09:34:44.591Z,710
2016-08-09T09:35:44.616Z,710
2016-08-09T09:37:48.531Z,685
2016-08-09T09:38:47.512Z,655
2016-08-09T09:39:46.358Z,645
2016-08-09T09:40:44.957Z,650
2016-08-09T09:41:44.638Z,660
2016-08-09T09:42:44.642Z,670
2016-08-09T09:43:44.632Z,685
2016-08-09T09:44:44.712Z,690
2016-08-09T09:45:46.749Z,685
2016-08-09T09:47:47.122Z,690
2016-08-09T09:48:46.446Z,715
2016-08-09T09:49:45.438Z,720
2016-08-09T09:50:45.435Z,715
2016-08-09T09:51:44.948Z,710
2016-08-09T09:52:44.682Z,680
2016-08-09T09:53:44.690Z,665
2016-08-09T09:54:44.701Z,675
2016-08-09T09:55:44.703Z,675
2016-08-09T09:56:44.703Z,670
2016-08-09T09:57:44.716Z,635
2016-08-09T09:58:44.727Z,595
2016-08-09T09:59:44.721Z,580
2016-08-09T10:00:44.735Z,570
2016-08-09T10:01:44.741Z,555
2016-08-09T10:02:44.742Z,535
2016-08-09T10:03:45.467Z,540
2016-08-09T10:04:44.754Z,545
2016-08-09T10:05:44.764Z,540
2016-08-09T10:06:45.124Z,540
2016-08-09T10:07:44.767Z,575
2016-08-09T10:08:44.774Z,590
2016-08-09T10:09:44.769Z,575
2016-08-09T10:10:44.771Z,560
2016-08-09T10:11:45.472Z,580
2016-08-09T10:12:44.788Z,640
2016-08-09T10:13:44.791Z,640
2016-08-09T10:14:44.798Z,665
2016-08-09T10:15:44.807Z,635
2016-08-09T10:16:44.804Z,570
2016-08-09T10:17:44.844Z,555
2016-08-09T10:18:44.821Z,590
2016-08-09T10:19:44.828Z,580
2016-08-09T10:20:44.822Z,615
2016-08-09T10:21:44.848Z,635
2016-08-09T10:22:44.845Z,625
2016-08-09T10:23:44.964Z,630
2016-08-09T10:24:44.850Z,600
2016-08-09T10:25:44.860Z,570
2016-08-09T10:26:44.860Z,545
2016-08-09T10:27:44.865Z,505
2016-08-09T10:28:44.862Z,505
2016-08-09T10:29:44.879Z,535
2016-08-09T10:30:44.877Z,535
2016-08-09T10:31:44.887Z,510
2016-08-09T10:32:44.894Z,535
2016-08-09T10:33:46.535Z,535
2016-08-09T10:34:46.856Z,495
2016-08-09T10:36:00.373Z,485
2016-08-09T10:37:14.785Z,510
2016-08-09T10:37:45.959Z,505
2016-08-09T10:38:44.903Z,495
2016-08-09T10:39:44.926Z,445
2016-08-09T10:40:44.920Z,425
2016-08-09T10:41:44.937Z,420
2016-08-09T10:43:46.686Z,455
2016-08-09T10:45:00.559Z,405
2016-08-09T10:45:45.537Z,375
2016-08-09T10:46:45.087Z,340
2016-08-09T10:47:45.496Z,330
2016-08-09T10:48:45.569Z,305
2016-08-09T10:49:44.947Z,315
2016-08-09T10:50:45.709Z,345
2016-08-09T10:51:44.961Z,395
2016-08-09T10:52:44.982Z,410
2016-08-09T10:53:44.965Z,420
2016-08-09T10:56:47.159Z,445
2016-08-09T10:57:46.717Z,410
2016-08-09T10:58:45.165Z,390
2016-08-09T10:59:46.028Z,370
2016-08-09T11:00:45.752Z,360
2016-08-09T11:01:45.002Z,375
2016-08-09T11:02:45.006Z,400
2016-08-09T11:03:47.079Z,405
2016-08-09T11:04:48.202Z,390
2016-08-09T11:05:46.900Z,390
2016-08-09T11:06:46.877Z,400
2016-08-09T11:07:45.652Z,440
2016-08-09T11:08:46.916Z,480
2016-08-09T11:09:45.013Z,475
2016-08-09T11:10:45.033Z,540
2016-08-09T11:11:45.146Z,585
2016-08-09T11:12:45.034Z,600
2016-08-09T11:13:45.040Z,555
2016-08-09T11:14:45.033Z,490
2016-08-09T11:15:45.052Z,440
2016-08-09T11:16:45.051Z,425
2016-08-09T11:17:45.042Z,410
2016-08-09T11:18:45.059Z,430
2016-08-09T11:19:45.052Z,420
2016-08-09T11:20:45.060Z,395
2016-08-09T11:21:45.059Z,385
2016-08-09T11:22:45.058Z,355
2016-08-09T11:23:45.080Z,365
2016-08-09T11:24:45.062Z,400
2016-08-09T11:25:45.067Z,425
2016-08-09T11:26:45.076Z,390
2016-08-09T11:27:45.091Z,345
2016-08-09T11:28:45.096Z,340
2016-08-09T11:29:45.795Z,340
2016-08-09T11:30:45.084Z,335
2016-08-09T11:31:45.092Z,340
2016-08-09T11:32:45.786Z,340
2016-08-09T11:33:45.792Z,350
2016-08-09T11:34:45.112Z,355
2016-08-09T11:35:45.105Z,365
2016-08-09T11:36:45.113Z,435
2016-08-09T11:37:45.111Z,535
2016-08-09T11:38:45.112Z,550
2016-08-09T11:39:45.114Z,530
2016-08-09T11:40:45.811Z,575
2016-08-09T11:41:45.120Z,625
2016-08-09T11:42:45.119Z,720
2016-08-09T11:43:45.136Z,750
2016-08-09T11:44:45.129Z,725
2016-08-09T11:45:45.148Z,750
2016-08-09T11:46:45.143Z,705
2016-08-09T11:47:45.139Z,665
2016-08-09T11:48:45.145Z,625
2016-08-09T11:49:45.153Z,620
2016-08-09T11:50:45.153Z,620
2016-08-09T11:52:03.786Z,640
2016-08-09T11:53:00.878Z,610
2016-08-09T11:53:46.026Z,590
2016-08-09T11:56:45.635Z,585
2016-08-09T11:57:45.889Z,595
2016-08-09T11:58:45.339Z,590
2016-08-09T11:59:45.192Z,575
2016-08-09T12:01:00.180Z,550
2016-08-09T12:02:01.380Z,530
2016-08-09T12:02:45.984Z,530
2016-08-09T12:03:45.865Z,545
2016-08-09T12:05:00.151Z,610
2016-08-09T12:05:46.730Z,640
2016-08-09T12:06:45.937Z,645
2016-08-09T12:07:45.233Z,620
2016-08-09T12:08:45.236Z,595
2016-08-09T12:09:45.243Z,565
2016-08-09T12:10:45.253Z,555
2016-08-09T12:11:45.952Z,565
2016-08-09T12:13:46.908Z,565
2016-08-09T12:14:48.925Z,565
2016-08-09T12:15:45.990Z,575
2016-08-09T12:16:45.926Z,590
2016-08-09T12:17:45.290Z,595
2016-08-09T12:18:45.317Z,590
2016-08-09T12:19:45.306Z,595
2016-08-09T12:20:45.327Z,615
2016-08-09T12:21:48.255Z,615
2016-08-09T12:23:48.353Z,625
2016-08-09T12:24:48.971Z,640
2016-08-09T12:25:46.289Z,650
2016-08-09T12:26:45.406Z,645
2016-08-09T12:27:46.114Z,635
2016-08-09T12:28:45.358Z,645
2016-08-09T12:29:46.212Z,650
2016-08-09T12:30:46.068Z,650
2016-08-09T12:31:45.366Z,635
2016-08-09T12:32:45.363Z,595
2016-08-09T12:33:45.381Z,560
2016-08-09T12:34:45.387Z,540
2016-08-09T12:35:45.388Z,500
2016-08-09T12:36:45.398Z,495
2016-08-09T12:37:45.406Z,475
2016-08-09T12:38:45.428Z,445
2016-08-09T12:39:45.412Z,405
2016-08-09T12:40:45.418Z,355
2016-08-09T12:41:45.412Z,325
2016-08-09T12:42:45.430Z,330
2016-08-09T12:43:45.434Z,350
2016-08-09T12:44:45.444Z,350
2016-08-09T12:45:45.443Z,350
2016-08-09T12:46:45.472Z,340
2016-08-09T12:47:45.453Z,345
2016-08-09T12:48:45.460Z,350
2016-08-09T12:49:45.458Z,360
2016-08-09T12:50:45.471Z,360
2016-08-09T12:51:45.467Z,355
2016-08-09T12:52:45.476Z,330
2016-08-09T12:53:45.484Z,325
2016-08-09T12:54:45.475Z,325
2016-08-09T12:55:45.494Z,330
2016-08-09T12:56:45.500Z,330
2016-08-09T12:57:45.500Z,330
2016-08-09T12:58:45.501Z,325
2016-08-09T12:59:45.504Z,335
2016-08-09T13:00:46.227Z,335
2016-08-09T13:01:45.510Z,335
2016-08-09T13:02:45.520Z,350
2016-08-09T13:03:45.512Z,350
2016-08-09T13:04:46.227Z,340
2016-08-09T13:05:45.523Z,335
2016-08-09T13:06:45.722Z,315
2016-08-09T13:07:45.532Z,315
2016-08-09T13:08:45.535Z,315
2016-08-09T13:09:46.387Z,320
2016-08-09T13:12:00.828Z,315
2016-08-09T13:13:46.408Z,340
2016-08-09T13:14:45.845Z,370
2016-08-09T13:15:45.559Z,375
2016-08-09T13:16:45.557Z,370
2016-08-09T13:17:45.569Z,385
2016-08-09T13:18:46.336Z,400
2016-08-09T13:20:01.095Z,420
2016-08-09T13:22:00.500Z,440
2016-08-09T13:23:00.647Z,480
2016-08-09T13:23:45.575Z,500
2016-08-09T13:24:46.195Z,520
2016-08-09T13:25:46.629Z,510
2016-08-09T13:26:45.598Z,490
2016-08-09T13:27:45.591Z,475
2016-08-09T13:28:45.588Z,470
2016-08-09T13:29:45.598Z,465
2016-08-09T13:30:45.610Z,445
2016-08-09T13:31:49.231Z,385
2016-08-09T13:32:46.838Z,325
2016-08-09T13:33:48.155Z,290
2016-08-09T13:34:45.830Z,275
2016-08-09T13:35:45.627Z,275
2016-08-09T13:36:46.568Z,280
2016-08-09T13:37:45.620Z,295
2016-08-09T13:38:45.637Z,300
2016-08-09T13:39:45.632Z,300
2016-08-09T13:40:48.224Z,310
2016-08-09T13:41:50.084Z,325
2016-08-09T13:42:48.118Z,355
2016-08-09T13:43:46.344Z,375
2016-08-09T13:44:46.069Z,400
2016-08-09T13:45:45.663Z,430
2016-08-09T13:46:46.047Z,460
2016-08-09T13:47:46.355Z,490
2016-08-09T13:48:45.655Z,510
2016-08-09T13:50:45.663Z,465
2016-08-09T13:51:45.670Z,415
2016-08-09T13:52:45.679Z,365
2016-08-09T13:53:46.377Z,330
2016-08-09T13:54:46.375Z,315
2016-08-09T13:55:45.684Z,305
2016-08-09T13:56:45.674Z,290
2016-08-09T13:57:45.693Z,280
2016-08-09T13:58:45.682Z,285
2016-08-09T13:59:45.691Z,290
2016-08-09T14:00:45.694Z,285
2016-08-09T14:01:45.705Z,290
2016-08-09T14:02:46.408Z,310
2016-08-09T14:03:45.698Z,345
2016-08-09T14:04:45.706Z,385
2016-08-09T14:05:45.715Z,405
2016-08-09T14:06:45.718Z,415
2016-08-09T14:07:45.711Z,410
2016-08-09T14:08:45.723Z,395
2016-08-09T14:09:45.712Z,375
2016-08-09T14:10:45.723Z,370
2016-08-09T14:11:45.754Z,355
2016-08-09T14:12:45.748Z,350
2016-08-09T14:13:45.737Z,345
2016-08-09T14:14:45.747Z,330
2016-08-09T14:15:45.734Z,310
2016-08-09T14:16:45.740Z,270
2016-08-09T14:17:45.741Z,250
2016-08-09T14:18:45.745Z,235
2016-08-09T14:19:45.749Z,235
2016-08-09T14:20:45.758Z,230
2016-08-09T14:21:45.758Z,225
2016-08-09T14:22:45.762Z,225
2016-08-09T14:23:45.761Z,220
2016-08-09T14:24:45.760Z,220
2016-08-09T14:25:45.762Z,215
2016-08-09T14:26:45.762Z,215
2016-08-09T14:27:45.787Z,210
2016-08-09T14:29:47.231Z,205
2016-08-09T14:31:16.264Z,205
2016-08-09T14:31:47.029Z,205
2016-08-09T14:32:47.377Z,200
2016-08-09T14:33:46.295Z,200
2016-08-09T14:34:45.790Z,200
2016-08-09T14:35:46.486Z,200
2016-08-09T14:36:45.787Z,200
2016-08-09T14:38:15.630Z,195
2016-08-09T14:39:46.239Z,195
2016-08-09T14:40:47.471Z,195
2016-08-09T14:41:45.794Z,195
2016-08-09T14:42:45.800Z,195
2016-08-09T14:43:46.664Z,195
2016-08-09T14:44:45.801Z,195
2016-08-09T14:45:45.790Z,190
2016-08-09T14:46:45.808Z,185
2016-08-09T14:47:45.798Z,185
2016-08-09T14:48:45.806Z,190